Latest Coastal Weather Observations for McCluer Island

IDD60701

Issued at 5:01 am CST Saturday 25 February 2017 (issued every 10 minutes, with the page automatically refreshed every 10 minutes)

About coastal observations | Map of coastal stations | Coastal observations for NT | Marine services | Other Formats
Station Details ID: 014274 Name: MCCLUER ISLAND Lat: -11.05 Lon: 132.98 Height: 1.4 m
Data from the previous 72 hours. | See also: Recent months at McCluer Island
Date/Time
CST
Temp
°C
Wind Pressure Rain since
9am
mm
Weather Cloud Vis
km
Sea
Height
m
Swell
Dir  Spd
kts
Gust
kts
hPa Trend Height
m
Period
s
Dir
25/05:00am 26.9 CALM 0 0 1009.2 - 0.0 - - - - - - -
25/04:30am 26.9 CALM 0 0 1009.1 - 0.0 - - - - - - -
25/04:00am 27.2 CALM 0 0 1009.1 - 0.0 - - - - - - -
25/03:30am 26.9 CALM 0 0 1009.0 - 0.0 - - - - - - -
25/03:00am 27.2 CALM 0 0 1009.3 - 0.0 - - - - - - -
25/02:30am 27.4 CALM 0 0 1009.7 - 0.0 - - - - - - -
25/02:00am 28.3 CALM 0 0 1010.1 - 0.0 - - - - - - -
25/01:30am 28.3 N 3 4 1010.3 - 0.0 - - - - - - -
25/01:00am 28.8 N 3 4 1010.5 - 0.0 - - - - - - -
25/12:30am 29.0 NNE 4 6 1010.5 - 0.0 - - - - - - -
25/12:00am 29.2 NNE 4 6 1010.7 - 0.0 - - - - - - -
 
Date/Time
CST
Temp
°C
Wind Pressure Rain since
9am
mm
Weather Cloud Vis
km
Sea
Height
m
Swell
Dir  Spd
kts
Gust
kts
hPa Trend Height
m
Period
s
Dir
24/11:30pm 29.2 NNE 6 7 1010.5 - 0.0 - - - - - - -
24/11:00pm 29.3 N 5 7 1010.5 - 0.0 - - - - - - -
24/10:30pm 29.0 N 5 6 1010.3 - 0.0 - - - - - - -
24/10:00pm 29.2 N 5 6 1010.4 - 0.0 - - - - - - -
24/09:30pm 29.3 N 4 5 1010.1 - 0.0 - - - - - - -
24/09:00pm 29.2 NNE 4 5 1009.9 - 0.0 - - - - - - -
24/08:30pm 29.2 NE 3 5 1009.8 - 0.0 - - - - - - -
24/08:00pm 29.2 NNE 4 5 1009.6 - 0.0 - - - - - - -
24/07:30pm 29.4 N 5 7 1009.5 - 0.0 - - - - - - -
24/07:00pm 29.7 N 7 8 1009.1 - 0.0 - - - - - - -
24/06:30pm 29.9 N 6 7 1008.8 - 0.0 - - - - - - -
24/06:00pm 30.1 NE 5 6 1008.8 - 0.0 - - - - - - -
24/05:30pm 30.2 NE 7 9 1008.8 - 0.0 - - - - - - -
24/05:00pm 30.5 NE 6 7 1008.6 - 0.0 - - - - - - -
24/04:30pm 30.6 N 6 7 1008.8 - 0.0 - - - - - - -
24/04:00pm 31.1 NNE 6 8 1008.8 - 0.0 - - - - - - -
24/03:30pm 30.9 NNE 6 7 1008.8 - 0.0 - - - - - - -
24/03:00pm 31.4 NNE 5 7 1009.1 - 0.0 - - - - - - -
24/02:30pm 31.3 NNE 5 6 1009.4 - 0.0 - - - - - - -
24/02:00pm 30.9 N 7 8 1009.7 - 0.0 - - - - - - -
24/01:30pm 31.1 N 5 7 1010.1 - 0.0 - - - - - - -
24/01:00pm 32.1 NNW 5 6 1010.6 - 0.0 - - - - - - -
24/12:30pm 31.9 NNW 5 6 1010.9 - 0.0 - - - - - - -
24/12:00pm 32.0 WNW 4 5 1011.2 - 0.0 - - - - - - -
24/11:30am 31.5 WNW 5 6 1011.5 - 0.0 - - - - - - -
24/11:00am 31.2 W 5 6 1011.6 - 0.0 - - - - - - -
24/10:30am 31.1 WNW 5 6 1011.7 - 0.0 - - - - - - -
24/10:00am 31.0 WNW 5 6 1011.9 - 0.0 - - - - - - -
24/09:30am 30.5 W 5 7 1012.0 - 0.0 - - - - - - -
24/09:00am 30.2 W 6 7 1011.8 - 0.0 - - - - - - -
24/08:30am 29.7 W 6 7 1011.7 - 0.0 - - - - - - -
24/08:00am 29.2 W 8 9 1011.6 - 0.0 - - - - - - -
24/07:30am 28.9 WNW 8 9 1011.3 - 0.0 - - - - - - -
24/07:00am 28.6 WNW 8 10 1011.2 - 0.0 - - - - - - -
24/06:30am 28.5 NW 9 11 1010.5 - 0.0 - - - - - - -
24/06:00am 28.4 NW 9 11 1010.0 - 0.0 - - - - - - -
24/05:30am 28.7 NW 9 11 1010.0 - 0.0 - - - - - - -
24/05:00am 28.5 NW 10 11 1009.6 - 0.0 - - - - - - -
24/04:30am 28.6 NW 11 12 1009.2 - 0.0 - - - - - - -
24/04:00am 28.6 NNW 11 13 1009.1 - 0.0 - - - - - - -
24/03:30am 28.6 NNW 13 15 1008.9 - 0.0 - - - - - - -
24/03:00am 28.7 NNW 12 14 1009.2 - 0.0 - - - - - - -
24/02:30am 28.6 NNW 11 13 1009.4 - 0.0 - - - - - - -
24/02:00am 28.8 NNW 10 12 1009.6 - 0.0 - - - - - - -
24/01:30am 28.9 NNW 12 14 1009.7 - 0.0 - - - - - - -
24/01:00am 29.2 NNW 12 13 1010.1 - 0.0 - - - - - - -
24/12:30am 28.9 NNW 12 15 1010.2 - 0.0 - - - - - - -
24/12:00am 28.8 NNW 11 13 1010.5 - 0.0 - - - - - - -
 
Date/Time
CST
Temp
°C
Wind Pressure Rain since
9am
mm
Weather Cloud Vis
km
Sea
Height
m
Swell
Dir  Spd
kts
Gust
kts
hPa Trend Height
m
Period
s
Dir
23/11:30pm 29.2 NNW 11 13 1010.5 - 0.0 - - - - - - -
23/11:00pm 29.1 NNW 12 13 1010.4 - 0.0 - - - - - - -
23/10:30pm 29.1 NNW 10 12 1010.1 - 0.0 - - - - - - -
23/10:00pm 29.1 NNW 10 11 1009.7 - 0.0 - - - - - - -
23/09:30pm 29.1 NNW 9 11 1009.5 - 0.0 - - - - - - -
23/09:00pm 29.3 NNW 10 11 1009.1 - 0.0 - - - - - - -
23/08:30pm 29.1 NNW 10 12 1008.8 - 0.0 - - - - - - -
23/08:00pm 29.3 NNW 10 11 1008.4 - 0.0 - - - - - - -
23/07:30pm 29.2 NNW 10 11 1008.0 - 0.0 - - - - - - -
23/07:00pm 29.5 NNW 9 10 1007.7 - 0.0 - - - - - - -
23/06:30pm 29.7 NNW 10 12 1007.2 - 0.0 - - - - - - -
23/06:00pm 30.1 NNW 11 13 1007.0 - 0.0 - - - - - - -
23/05:30pm 30.1 N 10 11 1006.9 - 0.0 - - - - - - -
23/05:00pm 30.5 N 10 12 1006.8 - 0.0 - - - - - - -
23/04:30pm 30.4 N 10 11 1006.7 - 0.0 - - - - - - -
23/04:00pm 30.7 N 9 11 1006.8 - 0.0 - - - - - - -
23/03:30pm 30.9 N 9 11 1007.0 - 0.0 - - - - - - -
23/03:00pm 30.8 N 10 11 1007.2 - 0.0 - - - - - - -
23/02:30pm 30.8 N 10 12 1007.4 - 0.0 - - - - - - -
23/02:00pm 31.1 N 9 11 1007.9 - 0.0 - - - - - - -
23/01:30pm 31.1 N 9 11 1008.2 - 0.0 - - - - - - -
23/01:00pm 30.7 N 8 10 1008.6 - 0.0 - - - - - - -
23/12:30pm 30.8 N 8 10 1009.0 - 0.0 - - - - - - -
23/12:00pm 31.3 NNW 7 9 1009.3 - 0.0 - - - - - - -
23/11:30am 31.4 NNW 7 8 1009.6 - 0.0 - - - - - - -
23/11:00am 30.8 NNW 6 8 1009.9 - 0.0 - - - - - - -
23/10:30am 31.0 NNW 5 6 1010.1 - 0.0 - - - - - - -
23/10:00am 30.8 NW 5 7 1010.1 - 0.0 - - - - - - -
23/09:30am 29.8 WNW 4 6 1010.2 - 0.0 - - - - - - -
23/09:00am 29.9 W 4 5 1010.3 - 0.0 - - - - - - -
23/08:30am 29.5 WSW 6 8 1010.1 - 0.0 - - - - - - -
23/08:00am 29.1 W 6 7 1009.8 - 0.0 - - - - - - -
23/07:30am 28.5 SW 8 9 1009.6 - 0.0 - - - - - - -
23/07:00am 28.1 S 6 8 1009.4 - 0.0 - - - - - - -
23/06:30am 28.1 WSW 7 8 1009.1 - 0.0 - - - - - - -
23/06:00am 28.0 WSW 8 9 1008.8 - 0.0 - - - - - - -
23/05:30am 28.4 WSW 8 10 1008.5 - 0.0 - - - - - - -
23/05:00am 28.1 WSW 8 9 1008.5 - 0.0 - - - - - - -
23/04:30am 28.2 W 8 10 1008.4 - 0.0 - - - - - - -
23/04:00am 28.4 W 8 11 1008.1 - 0.0 - - - - - - -
23/03:30am 28.5 W 12 14 1007.6 - 0.0 - - - - - - -
23/03:00am 28.3 W 10 12 1007.9 - 0.0 - - - - - - -
23/02:30am 28.6 W 11 14 1008.0 - 0.0 - - - - - - -
23/02:00am 28.5 W 11 14 1008.4 - 0.0 - - - - - - -
23/01:30am 28.6 W 11 14 1008.8 - 0.0 - - - - - - -
23/01:00am 28.7 W 11 15 1008.8 - 0.0 - - - - - - -
23/12:30am 28.7 WNW 14 16 1008.9 - 0.0 - - - - - - -
23/12:00am 28.7 WNW 14 17 1009.2 - 0.0 - - - - - - -
 
Date/Time
CST
Temp
°C
Wind Pressure Rain since
9am
mm
Weather Cloud Vis
km
Sea
Height
m
Swell
Dir  Spd
kts
Gust
kts
hPa Trend Height
m
Period
s
Dir
22/11:30pm 29.0 WNW 15 17 1009.6 - 0.0 - - - - - - -
22/11:00pm 28.9 WNW 15 17 1009.8 - 0.0 - - - - - - -
22/10:30pm 29.0 NW 15 16 1009.9 - 0.0 - - - - - - -
22/10:00pm 28.9 NW 15 17 1009.7 - 0.0 - - - - - - -
22/09:30pm 29.0 NW 14 16 1009.6 - 0.0 - - - - - - -
22/09:00pm 29.0 NW 14 17 1009.4 - 0.0 - - - - - - -
22/08:30pm 29.0 NW 13 15 1009.3 - 0.0 - - - - - - -
22/08:00pm 29.1 NW 13 14 1009.1 - 0.0 - - - - - - -
22/07:30pm 29.3 NW 12 14 1008.9 - 0.0 - - - - - - -
22/07:00pm 29.3 NW 12 14 1008.5 - 0.0 - - - - - - -
22/06:30pm 29.7 WNW 12 15 1008.2 - 0.0 - - - - - - -
22/06:00pm 30.0 NW 13 15 1008.1 - 0.0 - - - - - - -
22/05:30pm 30.3 NW 12 15 1007.8 - 0.0 - - - - - - -
22/05:00pm 30.6 NW 12 13 1007.6 - 0.0 - - - - - - -
22/04:30pm 30.7 NW 12 14 1007.7 - 0.0 - - - - - - -
22/04:00pm 30.7 NW 13 14 1007.8 - 0.0 - - - - - - -
22/03:30pm 30.2 NW 13 14 1008.1 - 0.0 - - - - - - -
22/03:00pm 30.6 NW 12 14 1008.2 - 0.0 - - - - - - -
22/02:30pm 30.9 NW 11 13 1008.4 - 0.0 - - - - - - -
22/02:00pm 30.8 NW 10 12 1008.8 - 0.0 - - - - - - -
22/01:30pm 30.8 NW 11 12 1009.2 - 0.0 - - - - - - -
22/01:00pm 30.9 NNW 10 12 1009.5 - 0.0 - - - - - - -
22/12:30pm 31.3 NNW 8 10 1010.1 - 0.0 - - - - - - -
22/12:00pm 31.3 NNW 8 9 1010.5 - 0.0 - - - - - - -
22/11:30am 30.8 NNW 7 9 1010.8 - 0.0 - - - - - - -
22/11:00am 30.8 WNW 9 10 1010.8 - 0.0 - - - - - - -
22/10:30am 30.5 W 8 10 1011.2 - 0.0 - - - - - - -
22/10:00am 30.0 W 7 9 1011.3 - 0.0 - - - - - - -
22/09:30am 30.0 WSW 9 11 1011.4 - 0.0 - - - - - - -
22/09:00am 29.5 WSW 10 12 1011.3 - 0.0 - - - - - - -
22/08:30am 28.8 WSW 11 13 1011.0 - 0.0 - - - - - - -
22/08:00am 28.9 WSW 12 14 1010.6 - 0.0 - - - - - - -
22/07:30am 28.5 W 10 12 1010.3 - 0.0 - - - - - - -
22/07:00am 28.5 W 11 14 1010.2 - 0.0 - - - - - - -
22/06:30am 28.5 W 12 13 1009.9 - 0.0 - - - - - - -
22/06:00am 28.3 W 12 14 1009.7 - 0.0 - - - - - - -
22/05:30am 28.4 WNW 12 14 1009.5 - 0.0 - - - - - - -

Other Formats:

Comma delimited format used in spreadsheet applications
http://www.bom.gov.au/fwo/IDD60701/IDD60701.94135.axf

JavaScript Object Notation format (JSON) in row-major order
http://www.bom.gov.au/fwo/IDD60701/IDD60701.94135.json